createdAt,value
2019-04-25T00:01:38.925Z,9.00
2019-04-25T00:04:11.730Z,9.00
2019-04-25T00:06:42.865Z,8.90
2019-04-25T00:09:16.626Z,8.80
2019-04-25T00:11:48.132Z,8.80
2019-04-25T00:14:19.567Z,8.80
2019-04-25T00:16:51.835Z,8.80
2019-04-25T00:19:22.200Z,8.70
2019-04-25T00:22:02.006Z,8.70
2019-04-25T00:24:49.718Z,8.70
2019-04-25T00:27:21.581Z,8.70
2019-04-25T00:29:52.748Z,8.70
2019-04-25T00:32:23.348Z,8.70
2019-04-25T00:34:53.639Z,8.70
2019-04-25T00:37:23.959Z,8.70
2019-04-25T00:39:54.538Z,8.70
2019-04-25T00:42:24.931Z,8.60
2019-04-25T00:44:55.326Z,8.60
2019-04-25T00:47:25.652Z,8.60
2019-04-25T00:49:56.056Z,8.50
2019-04-25T00:52:26.518Z,8.50
2019-04-25T00:54:56.827Z,8.40
2019-04-25T00:57:28.256Z,8.40
2019-04-25T01:00:09.507Z,8.30
2019-04-25T01:02:44.081Z,8.30
2019-04-25T01:05:14.544Z,8.20
2019-04-25T01:07:45.622Z,8.20
2019-04-25T01:10:16.585Z,8.10
2019-04-25T01:12:46.909Z,8.10
2019-04-25T01:15:18.474Z,8.10
2019-04-25T01:17:48.918Z,8.10
2019-04-25T01:20:20.318Z,8.10
2019-04-25T01:22:51.324Z,8.20
2019-04-25T01:25:21.650Z,8.20
2019-04-25T01:27:53.653Z,8.20
2019-04-25T01:30:25.696Z,8.30
2019-04-25T01:32:56.724Z,8.30
2019-04-25T01:35:35.494Z,8.30
2019-04-25T01:38:14.081Z,8.30
2019-04-25T01:41:10.166Z,8.30
2019-04-25T01:43:57.205Z,8.30
2019-04-25T01:46:25.979Z,8.30
2019-04-25T01:48:56.548Z,8.20
2019-04-25T01:51:26.921Z,8.10
2019-04-25T01:53:57.244Z,8.00
2019-04-25T01:56:27.549Z,7.90
2019-04-25T01:58:57.876Z,7.90
2019-04-25T02:01:28.579Z,7.90
2019-04-25T02:03:59.055Z,7.90
2019-04-25T02:06:29.443Z,7.90
2019-04-25T02:08:59.873Z,7.90
2019-04-25T02:11:55.537Z,7.90
2019-04-25T02:14:25.963Z,7.90
2019-04-25T02:16:57.173Z,7.80
2019-04-25T02:19:27.902Z,7.70
2019-04-25T02:21:58.207Z,7.70
2019-04-25T02:24:28.627Z,7.70
2019-04-25T02:26:58.926Z,7.70
2019-04-25T02:29:29.749Z,7.60
2019-04-25T02:32:02.876Z,7.50
2019-04-25T02:34:34.564Z,7.50
2019-04-25T02:37:09.098Z,7.50
2019-04-25T02:39:37.428Z,7.40
2019-04-25T02:42:08.764Z,7.30
2019-04-25T02:44:44.518Z,7.30
2019-04-25T02:47:31.137Z,7.20
2019-04-25T02:50:29.456Z,7.10
2019-04-25T02:53:25.518Z,7.10
2019-04-25T02:55:56.763Z,7.00
2019-04-25T02:58:27.819Z,7.00
2019-04-25T03:01:09.387Z,6.90
2019-04-25T03:03:30.901Z,6.90
2019-04-25T03:06:01.546Z,6.80
2019-04-25T03:08:31.942Z,6.80
2019-04-25T03:11:04.687Z,6.80
2019-04-25T03:13:34.397Z,6.80
2019-04-25T03:16:08.928Z,6.70
2019-04-25T03:18:44.302Z,6.70
2019-04-25T03:21:24.972Z,6.70
2019-04-25T03:23:55.517Z,6.70
2019-04-25T03:26:32.839Z,6.70
2019-04-25T03:28:58.824Z,6.60
2019-04-25T03:31:29.905Z,6.60
2019-04-25T03:34:02.180Z,6.60
2019-04-25T03:36:33.713Z,6.60
2019-04-25T03:39:06.694Z,6.60
2019-04-25T03:41:37.121Z,6.60
2019-04-25T03:44:08.008Z,6.70
2019-04-25T03:46:38.363Z,6.80
2019-04-25T03:49:09.700Z,6.90
2019-04-25T03:51:40.082Z,7.00
2019-04-25T03:54:10.618Z,7.10
2019-04-25T03:56:49.953Z,7.10
2019-04-25T03:59:14.585Z,7.20
2019-04-25T04:01:45.020Z,7.20
2019-04-25T04:04:16.339Z,7.20
2019-04-25T04:06:46.854Z,7.20
2019-04-25T04:09:17.281Z,7.20
2019-04-25T04:11:47.623Z,7.10
2019-04-25T04:14:17.953Z,7.10
2019-04-25T04:17:06.692Z,7.00
2019-04-25T04:19:45.897Z,6.90
2019-04-25T04:22:24.129Z,6.90
2019-04-25T04:24:56.495Z,6.80
2019-04-25T04:27:26.795Z,6.70
2019-04-25T04:29:57.133Z,6.60
2019-04-25T04:32:27.438Z,6.60
2019-04-25T04:34:57.807Z,6.60
2019-04-25T04:37:28.121Z,6.60
2019-04-25T04:39:58.462Z,6.50
2019-04-25T04:42:30.013Z,6.60
2019-04-25T04:45:00.402Z,6.60
2019-04-25T04:47:30.722Z,6.60
2019-04-25T04:50:01.059Z,6.60
2019-04-25T04:52:31.391Z,6.60
2019-04-25T04:55:06.278Z,6.60
2019-04-25T04:57:36.115Z,6.70
2019-04-25T05:00:06.928Z,6.70
2019-04-25T05:03:02.080Z,6.80
2019-04-25T05:05:56.795Z,6.90
2019-04-25T05:08:30.086Z,6.90
2019-04-25T05:11:00.454Z,7.00
2019-04-25T05:13:30.837Z,7.00
2019-04-25T05:16:01.205Z,7.10
2019-04-25T05:18:37.445Z,7.20
2019-04-25T05:21:04.235Z,7.20
2019-04-25T05:23:34.625Z,7.20
2019-04-25T05:26:04.947Z,7.30
2019-04-25T05:28:35.296Z,7.40
2019-04-25T05:31:25.403Z,7.50
2019-04-25T05:33:54.783Z,7.50
2019-04-25T05:36:29.031Z,7.70
2019-04-25T05:38:59.331Z,7.80
2019-04-25T05:41:38.285Z,7.90
2019-04-25T05:44:08.618Z,8.00
2019-04-25T05:46:39.053Z,8.10
2019-04-25T05:49:09.351Z,8.20
2019-04-25T05:51:39.676Z,8.30
2019-04-25T05:54:09.998Z,8.40
2019-04-25T05:56:40.368Z,8.50
2019-04-25T05:59:10.678Z,8.60
2019-04-25T06:01:41.129Z,8.70
2019-04-25T06:04:11.443Z,8.70
2019-04-25T06:06:41.777Z,8.90
2019-04-25T06:09:37.462Z,9.00
2019-04-25T06:12:26.769Z,9.10
2019-04-25T06:14:57.146Z,9.30
2019-04-25T06:17:40.471Z,9.40
2019-04-25T06:20:13.445Z,9.50
2019-04-25T06:22:53.455Z,9.70
2019-04-25T06:25:32.318Z,9.80
2019-04-25T06:27:59.292Z,10.00
2019-04-25T06:30:31.588Z,10.10
2019-04-25T06:33:03.305Z,10.20
2019-04-25T06:35:35.787Z,10.30
2019-04-25T06:38:06.294Z,10.50
2019-04-25T06:40:36.603Z,10.70
2019-04-25T06:43:06.942Z,10.90
2019-04-25T06:46:05.461Z,11.10
2019-04-25T06:48:49.147Z,11.30
2019-04-25T06:51:22.418Z,11.60
2019-04-25T06:53:53.463Z,11.90
2019-04-25T06:56:24.946Z,12.20
2019-04-25T06:58:55.516Z,12.40
2019-04-25T07:01:26.714Z,12.60
2019-04-25T07:03:58.048Z,12.80
2019-04-25T07:06:29.152Z,13.00
2019-04-25T07:08:59.494Z,13.20
2019-04-25T07:11:30.475Z,13.40
2019-04-25T07:14:00.958Z,13.50
2019-04-25T07:16:33.768Z,13.70
2019-04-25T07:19:06.173Z,13.70
2019-04-25T07:21:38.061Z,13.70
2019-04-25T07:24:09.728Z,13.70
2019-04-25T07:26:59.527Z,13.70
2019-04-25T07:29:49.981Z,13.70
2019-04-25T07:32:40.528Z,13.80
2019-04-25T07:35:13.496Z,13.80
2019-04-25T07:37:45.571Z,13.90
2019-04-25T07:40:18.648Z,14.10
2019-04-25T07:42:50.188Z,14.30
2019-04-25T07:45:21.668Z,14.50
2019-04-25T07:47:54.202Z,14.80
2019-04-25T07:50:26.868Z,15.00
2019-04-25T07:52:58.704Z,15.10
2019-04-25T07:55:31.036Z,15.30
2019-04-25T07:58:03.158Z,15.40
2019-04-25T08:00:36.330Z,15.50
2019-04-25T08:03:08.034Z,15.50
2019-04-25T08:05:38.624Z,15.60
2019-04-25T08:08:08.964Z,15.70
2019-04-25T08:11:00.305Z,15.80
2019-04-25T08:13:39.869Z,16.00
2019-04-25T08:16:14.416Z,16.20
2019-04-25T08:18:46.029Z,16.40
2019-04-25T08:21:16.379Z,16.50
2019-04-25T08:23:47.498Z,16.70
2019-04-25T08:26:17.853Z,16.80
2019-04-25T08:28:54.985Z,17.00
2019-04-25T08:31:20.149Z,17.10
2019-04-25T08:33:50.444Z,17.40
2019-04-25T08:36:20.828Z,17.60
2019-04-25T08:38:51.138Z,17.90
2019-04-25T08:41:21.672Z,18.10
2019-04-25T08:43:52.074Z,18.30
2019-04-25T08:46:23.492Z,18.40
2019-04-25T08:49:23.874Z,18.40
2019-04-25T08:51:55.802Z,18.30
2019-04-25T08:54:35.580Z,18.20
2019-04-25T08:57:06.514Z,18.00
2019-04-25T08:59:52.273Z,17.90
2019-04-25T09:02:32.379Z,17.90
2019-04-25T09:05:37.790Z,17.70
2019-04-25T09:08:09.028Z,17.60
2019-04-25T09:10:40.167Z,17.50
2019-04-25T09:13:10.879Z,17.50
2019-04-25T09:15:44.273Z,17.50
2019-04-25T09:18:14.218Z,17.60
2019-04-25T09:20:46.559Z,17.80
2019-04-25T09:23:16.581Z,18.00
2019-04-25T09:25:46.883Z,18.30
2019-04-25T09:28:17.212Z,18.50
2019-04-25T09:30:47.519Z,18.80
2019-04-25T09:33:17.890Z,19.10
2019-04-25T09:35:48.198Z,19.30
2019-04-25T09:38:19.598Z,19.50
2019-04-25T09:40:49.934Z,19.80
2019-04-25T09:43:20.317Z,20.10
2019-04-25T09:46:09.580Z,20.30
2019-04-25T09:48:50.077Z,20.30
2019-04-25T09:51:24.397Z,20.40
2019-04-25T09:54:03.619Z,20.60
2019-04-25T09:56:40.995Z,20.80
2019-04-25T09:59:13.825Z,21.10
2019-04-25T10:01:48.334Z,21.30
2019-04-25T10:04:18.784Z,21.50
2019-04-25T10:06:49.104Z,21.60
2019-04-25T10:09:20.030Z,21.80
2019-04-25T10:11:50.509Z,21.90
2019-04-25T10:15:10.699Z,22.30
2019-04-25T10:17:41.188Z,22.60
2019-04-25T10:20:14.476Z,23.00
2019-04-25T10:22:44.586Z,23.00
2019-04-25T10:25:16.886Z,23.10
2019-04-25T10:27:49.196Z,23.20
2019-04-25T10:30:23.386Z,23.20
2019-04-25T10:32:51.487Z,23.00
2019-04-25T10:35:21.792Z,22.90
2019-04-25T10:37:53.747Z,22.90
2019-04-25T10:40:25.109Z,22.90
2019-04-25T10:42:56.615Z,23.00
2019-04-25T10:45:27.120Z,23.00
2019-04-25T10:47:57.462Z,23.00
2019-04-25T10:50:27.755Z,22.80
2019-04-25T10:52:58.111Z,22.70
2019-04-25T10:55:28.439Z,22.60
2019-04-25T10:57:58.836Z,22.60
2019-04-25T11:00:36.098Z,22.60
2019-04-25T11:03:31.368Z,22.50
2019-04-25T11:06:01.683Z,22.50
2019-04-25T11:08:33.882Z,22.40
2019-04-25T11:11:04.689Z,22.60
2019-04-25T11:13:37.091Z,22.60
2019-04-25T11:16:08.202Z,22.60
2019-04-25T11:18:38.648Z,22.50
2019-04-25T11:21:08.966Z,22.50
2019-04-25T11:23:39.329Z,22.60
2019-04-25T11:26:09.766Z,22.70
2019-04-25T11:28:40.829Z,22.70
2019-04-25T11:31:17.848Z,22.80
2019-04-25T11:33:48.306Z,22.80
2019-04-25T11:36:18.642Z,22.90
2019-04-25T11:39:16.871Z,23.20
2019-04-25T11:41:48.251Z,23.60
2019-04-25T11:44:18.975Z,24.00
2019-04-25T11:46:49.263Z,24.30
2019-04-25T11:49:19.613Z,24.70
2019-04-25T11:51:52.370Z,25.10
2019-04-25T11:54:24.152Z,25.50
2019-04-25T11:56:56.385Z,25.80
2019-04-25T11:59:26.944Z,26.10
2019-04-25T12:01:57.447Z,26.20
2019-04-25T12:04:27.837Z,26.50
2019-04-25T12:06:58.334Z,27.00
2019-04-25T12:09:28.771Z,27.50
2019-04-25T12:11:59.112Z,28.00
2019-04-25T12:14:29.499Z,28.40
2019-04-25T12:17:03.794Z,29.00
2019-04-25T12:19:37.644Z,29.60
2019-04-25T12:22:06.547Z,30.20
2019-04-25T12:24:36.927Z,30.80
2019-04-25T12:27:07.334Z,31.10
2019-04-25T12:29:38.888Z,31.50
2019-04-25T12:32:09.283Z,31.70
2019-04-25T12:34:39.637Z,32.10
2019-04-25T12:37:09.973Z,32.60
2019-04-25T12:39:40.319Z,32.90
2019-04-25T12:42:11.550Z,33.30
2019-04-25T12:44:49.221Z,33.70
2019-04-25T12:47:21.941Z,34.00
2019-04-25T12:49:53.186Z,34.20
2019-04-25T12:52:24.648Z,34.30
2019-04-25T12:54:58.060Z,34.30
2019-04-25T12:57:28.524Z,33.80
2019-04-25T12:59:58.925Z,33.30
2019-04-25T13:02:29.398Z,33.00
2019-04-25T13:04:59.860Z,32.70
2019-04-25T13:07:30.204Z,32.30
2019-04-25T13:10:00.574Z,32.10
2019-04-25T13:12:30.981Z,32.00
2019-04-25T13:15:01.369Z,32.20
2019-04-25T13:17:33.737Z,32.60
2019-04-25T13:20:05.601Z,33.30
2019-04-25T13:22:36.039Z,33.60
2019-04-25T13:25:08.525Z,34.30
2019-04-25T13:27:47.854Z,35.10
2019-04-25T13:30:35.833Z,35.30
2019-04-25T13:33:23.872Z,34.80
2019-04-25T13:36:06.868Z,34.30
2019-04-25T13:38:37.215Z,33.80
2019-04-25T13:41:07.609Z,33.50
2019-04-25T13:43:37.957Z,33.10
2019-04-25T13:46:08.421Z,32.50
2019-04-25T13:48:38.946Z,31.80
2019-04-25T13:51:09.291Z,31.30
2019-04-25T13:53:39.698Z,30.80
2019-04-25T13:56:10.266Z,30.40
2019-04-25T13:58:40.752Z,30.20
2019-04-25T14:01:17.066Z,30.00
2019-04-25T14:03:45.393Z,29.40
2019-04-25T14:06:16.105Z,28.90
2019-04-25T14:08:46.444Z,28.40
2019-04-25T14:11:16.791Z,27.90
2019-04-25T14:13:47.256Z,27.30
2019-04-25T14:16:34.903Z,26.70
2019-04-25T14:19:31.164Z,26.30
2019-04-25T14:22:04.341Z,26.00
2019-04-25T14:24:35.891Z,25.90
2019-04-25T14:27:06.750Z,25.90
2019-04-25T14:29:37.096Z,25.80
2019-04-25T14:32:09.318Z,25.50
2019-04-25T14:34:39.642Z,25.30
2019-04-25T14:37:14.598Z,24.90
2019-04-25T14:39:43.748Z,24.70
2019-04-25T14:42:14.111Z,24.60
2019-04-25T14:45:05.153Z,24.70
2019-04-25T14:47:35.575Z,24.50
2019-04-25T14:50:06.222Z,24.80
2019-04-25T14:52:36.573Z,25.00
2019-04-25T14:55:29.616Z,25.30
2019-04-25T14:58:01.811Z,25.90
2019-04-25T15:00:39.014Z,26.30
2019-04-25T15:03:09.399Z,26.30
2019-04-25T15:05:42.174Z,26.50
2019-04-25T15:08:12.154Z,27.00
2019-04-25T15:13:11.558Z,27.60
2019-04-25T15:15:42.973Z,29.60
2019-04-25T15:18:13.289Z,30.10
2019-04-25T15:20:43.726Z,29.90
2019-04-25T15:23:14.167Z,29.50
2019-04-25T15:25:44.489Z,28.90
2019-04-25T15:28:14.803Z,28.20
2019-04-25T15:30:45.944Z,28.10
2019-04-25T15:33:16.349Z,28.30
2019-04-25T15:36:08.482Z,28.10
2019-04-25T15:39:00.783Z,27.30
2019-04-25T15:41:39.260Z,26.80
2019-04-25T15:44:27.383Z,26.30
2019-04-25T15:46:58.795Z,25.90
2019-04-25T15:49:29.728Z,25.60
2019-04-25T15:52:00.088Z,25.60
2019-04-25T15:54:30.431Z,25.60
2019-04-25T15:57:00.743Z,25.80
2019-04-25T15:59:31.202Z,26.10
2019-04-25T16:02:07.982Z,26.40
2019-04-25T16:04:34.565Z,26.30
2019-04-25T16:07:05.682Z,25.70
2019-04-25T16:09:36.571Z,25.20
2019-04-25T16:12:07.314Z,25.00
2019-04-25T16:14:38.953Z,24.80
2019-04-25T16:17:09.430Z,24.80
2019-04-25T16:19:39.781Z,25.30
2019-04-25T16:22:10.103Z,26.10
2019-04-25T16:24:41.042Z,26.90
2019-04-25T16:27:11.823Z,27.60
2019-04-25T16:29:42.154Z,28.00
2019-04-25T16:32:20.821Z,28.20
2019-04-25T16:34:48.809Z,28.60
2019-04-25T16:37:19.110Z,28.70
2019-04-25T16:39:49.510Z,28.60
2019-04-25T16:42:19.817Z,28.50
2019-04-25T16:44:50.147Z,28.30
2019-04-25T16:47:22.514Z,28.00
2019-04-25T16:49:53.444Z,27.60
2019-04-25T16:52:24.579Z,27.00
2019-04-25T16:54:54.910Z,25.70
2019-04-25T16:57:25.243Z,24.70
2019-04-25T16:59:55.589Z,23.70
2019-04-25T17:02:35.499Z,22.80
2019-04-25T17:05:02.159Z,21.80
2019-04-25T17:07:33.979Z,21.10
2019-04-25T17:10:04.808Z,20.70
2019-04-25T17:12:36.415Z,20.30
2019-04-25T17:15:30.617Z,19.90
2019-04-25T17:18:26.167Z,19.60
2019-04-25T17:21:03.590Z,19.50
2019-04-25T17:23:34.488Z,19.70
2019-04-25T17:26:05.621Z,19.90
2019-04-25T17:28:39.185Z,20.40
2019-04-25T17:31:31.411Z,20.60
2019-04-25T17:34:27.746Z,20.40
2019-04-25T17:37:15.116Z,20.00
2019-04-25T17:39:49.060Z,19.60
2019-04-25T17:42:19.414Z,19.20
2019-04-25T17:44:49.750Z,18.90
2019-04-25T17:47:20.104Z,18.30
2019-04-25T17:49:50.537Z,18.10
2019-04-25T17:52:21.047Z,17.90
2019-04-25T17:54:51.346Z,17.60
2019-04-25T17:57:21.698Z,17.40
2019-04-25T17:59:52.006Z,17.30
2019-04-25T18:02:22.519Z,17.20
2019-04-25T18:04:52.916Z,17.10
2019-04-25T18:07:23.255Z,16.80
2019-04-25T18:09:53.682Z,16.70
2019-04-25T18:12:23.995Z,16.60
2019-04-25T18:14:56.218Z,16.50
2019-04-25T18:17:26.560Z,16.40
2019-04-25T18:20:02.033Z,16.30
2019-04-25T18:22:51.452Z,16.20
2019-04-25T18:25:41.134Z,16.10
2019-04-25T18:28:26.218Z,16.00
2019-04-25T18:30:56.526Z,15.90
2019-04-25T18:33:30.353Z,15.60
2019-04-25T18:36:25.550Z,15.70
2019-04-25T18:39:24.123Z,15.80
2019-04-25T18:42:28.616Z,15.70
2019-04-25T18:44:58.932Z,15.80
2019-04-25T18:47:29.297Z,15.70
2019-04-25T18:49:59.604Z,15.60
2019-04-25T18:52:48.246Z,15.50
2019-04-25T18:55:24.791Z,15.40
2019-04-25T18:58:08.689Z,15.30
2019-04-25T19:00:49.020Z,15.20
2019-04-25T19:03:47.999Z,15.20
2019-04-25T19:06:19.702Z,15.10
2019-04-25T19:08:53.202Z,15.00
2019-04-25T19:11:22.350Z,15.00
2019-04-25T19:13:52.815Z,14.90
2019-04-25T19:16:23.192Z,14.90
2019-04-25T19:18:53.629Z,14.90
2019-04-25T19:21:24.278Z,14.80
2019-04-25T19:23:54.641Z,14.80
2019-04-25T19:26:25.085Z,14.90
2019-04-25T19:28:55.399Z,14.90
2019-04-25T19:31:25.803Z,14.90
2019-04-25T19:33:56.184Z,14.90
2019-04-25T19:36:26.860Z,14.90
2019-04-25T19:38:57.197Z,14.80
2019-04-25T19:41:34.269Z,14.80
2019-04-25T19:44:16.503Z,14.80
2019-04-25T19:46:49.260Z,14.80
2019-04-25T19:49:19.774Z,14.80
2019-04-25T19:51:53.690Z,14.80
2019-04-25T19:54:24.010Z,14.80
2019-04-25T19:56:56.364Z,14.80
2019-04-25T19:59:26.339Z,14.80
2019-04-25T20:01:59.608Z,14.80
2019-04-25T20:04:53.221Z,14.80
2019-04-25T20:07:33.503Z,14.80
2019-04-25T20:10:26.107Z,14.70
2019-04-25T20:12:56.565Z,14.70
2019-04-25T20:15:27.023Z,14.70
2019-04-25T20:17:57.607Z,14.70
2019-04-25T20:20:28.443Z,14.70
2019-04-25T20:22:58.825Z,14.70
2019-04-25T20:25:29.272Z,14.70
2019-04-25T20:27:59.628Z,14.70
2019-04-25T20:30:29.932Z,14.70
2019-04-25T20:33:01.682Z,14.60
2019-04-25T20:35:32.275Z,14.60
2019-04-25T20:38:02.666Z,14.60
2019-04-25T20:40:32.971Z,14.60
2019-04-25T20:43:03.409Z,14.60
2019-04-25T20:45:33.710Z,14.60
2019-04-25T20:48:04.123Z,14.60
2019-04-25T20:50:34.542Z,14.60
2019-04-25T20:53:04.956Z,14.50
2019-04-25T20:55:35.327Z,14.50
2019-04-25T20:58:08.131Z,14.50
2019-04-25T21:00:44.831Z,14.50
2019-04-25T21:03:15.289Z,14.40
2019-04-25T21:05:46.738Z,14.40
2019-04-25T21:08:17.681Z,14.40
2019-04-25T21:10:47.988Z,14.40
2019-04-25T21:13:24.422Z,14.40
2019-04-25T21:16:04.213Z,14.40
2019-04-25T21:18:57.805Z,14.40
2019-04-25T21:21:28.255Z,14.40
2019-04-25T21:23:59.084Z,14.40
2019-04-25T21:26:29.483Z,14.40
2019-04-25T21:28:59.851Z,14.40
2019-04-25T21:31:30.318Z,14.30
2019-04-25T21:34:00.878Z,14.30
2019-04-25T21:36:32.077Z,14.30
2019-04-25T21:39:02.498Z,14.30
2019-04-25T21:41:53.471Z,14.30
2019-04-25T21:44:24.205Z,14.30
2019-04-25T21:46:54.683Z,14.20
2019-04-25T21:49:25.459Z,14.20
2019-04-25T21:51:57.063Z,14.20
2019-04-25T21:54:27.382Z,14.20
2019-04-25T21:56:58.289Z,14.20
2019-04-25T21:59:29.169Z,14.20
2019-04-25T22:02:00.174Z,14.20
2019-04-25T22:04:38.732Z,14.20
2019-04-25T22:07:03.012Z,14.20
2019-04-25T22:09:33.697Z,14.20
2019-04-25T22:12:07.540Z,14.20
2019-04-25T22:14:38.025Z,14.10
2019-04-25T22:17:08.746Z,14.10
2019-04-25T22:19:39.330Z,14.10
2019-04-25T22:22:09.953Z,14.10
2019-04-25T22:24:40.280Z,14.10
2019-04-25T22:27:15.072Z,14.10
2019-04-25T22:29:47.431Z,14.10
2019-04-25T22:32:28.182Z,14.10
2019-04-25T22:35:16.217Z,14.00
2019-04-25T22:37:46.514Z,14.00
2019-04-25T22:40:28.566Z,14.00
2019-04-25T22:43:01.797Z,13.90
2019-04-25T22:45:34.147Z,13.90
2019-04-25T22:48:06.892Z,13.90
2019-04-25T22:50:39.595Z,13.90
2019-04-25T22:53:21.552Z,13.90
2019-04-25T22:55:45.934Z,13.90
2019-04-25T22:58:16.434Z,13.90
2019-04-25T23:00:46.763Z,13.90
2019-04-25T23:03:30.020Z,13.80
2019-04-25T23:06:01.260Z,13.80
2019-04-25T23:08:32.375Z,13.80
2019-04-25T23:11:02.854Z,13.80
2019-04-25T23:13:33.363Z,13.80
2019-04-25T23:16:05.042Z,13.80
2019-04-25T23:18:35.407Z,13.80
2019-04-25T23:21:06.734Z,13.80
2019-04-25T23:23:37.242Z,13.80
2019-04-25T23:26:41.587Z,13.80
2019-04-25T23:29:12.285Z,13.80
2019-04-25T23:31:42.649Z,13.80
2019-04-25T23:34:13.319Z,13.80
2019-04-25T23:36:44.543Z,13.70
2019-04-25T23:39:15.443Z,13.70
2019-04-25T23:41:45.862Z,13.70
2019-04-25T23:44:16.198Z,13.70
2019-04-25T23:46:46.819Z,13.70
2019-04-25T23:49:17.129Z,13.70
2019-04-25T23:51:47.763Z,13.70
2019-04-25T23:54:18.058Z,13.70
2019-04-25T23:56:48.603Z,13.70
2019-04-25T23:59:18.897Z,13.70
